createdAt,value
2018-02-01T00:01:48.772Z,2.73
2018-02-01T00:04:17.272Z,2.00
2018-02-01T00:06:45.591Z,1.60
2018-02-01T00:09:13.899Z,1.30
2018-02-01T00:11:43.022Z,3.17
2018-02-01T00:14:11.324Z,1.90
2018-02-01T00:16:39.619Z,2.80
2018-02-01T00:19:07.727Z,2.80
2018-02-01T00:21:36.036Z,2.90
2018-02-01T00:24:04.352Z,5.73
2018-02-01T00:26:32.708Z,2.37
2018-02-01T00:29:01.010Z,1.60
2018-02-01T00:31:29.311Z,1.60
2018-02-01T00:33:57.666Z,2.23
2018-02-01T00:36:25.963Z,1.53
2018-02-01T00:38:55.031Z,2.00
2018-02-01T00:41:23.379Z,2.50
2018-02-01T00:43:51.735Z,2.53
2018-02-01T00:46:20.035Z,2.00
2018-02-01T00:48:48.400Z,2.07
2018-02-01T00:51:16.709Z,1.50
2018-02-01T00:53:45.019Z,2.17
2018-02-01T00:56:13.531Z,2.70
2018-02-01T00:58:41.862Z,2.03
2018-02-01T01:01:10.169Z,1.87
2018-02-01T01:03:38.495Z,1.50
2018-02-01T01:06:06.797Z,2.00
2018-02-01T01:08:35.098Z,3.10
2018-02-01T01:11:03.522Z,1.60
2018-02-01T01:13:31.823Z,2.00
2018-02-01T01:16:00.124Z,1.90
2018-02-01T01:18:28.551Z,1.50
2018-02-01T01:20:56.856Z,2.00
2018-02-01T01:23:25.156Z,2.87
2018-02-01T01:25:53.991Z,1.67
2018-02-01T01:28:22.559Z,2.60
2018-02-01T01:30:50.865Z,2.77
2018-02-01T01:33:19.786Z,1.30
2018-02-01T01:35:48.135Z,1.70
2018-02-01T01:38:16.435Z,1.70
2018-02-01T01:40:44.940Z,1.70
2018-02-01T01:43:13.236Z,2.97
2018-02-01T01:45:41.555Z,1.77
2018-02-01T01:48:09.896Z,1.70
2018-02-01T01:50:38.199Z,2.00
2018-02-01T01:53:06.508Z,1.83
2018-02-01T01:55:34.855Z,2.20
2018-02-01T01:58:03.157Z,2.27
2018-02-01T02:00:31.460Z,2.50
2018-02-01T02:03:00.770Z,2.23
2018-02-01T02:05:29.067Z,5.63
2018-02-01T02:07:57.369Z,2.60
2018-02-01T02:10:25.724Z,2.03
2018-02-01T02:12:54.042Z,1.80
2018-02-01T02:15:22.448Z,1.90
2018-02-01T02:17:50.794Z,1.67
2018-02-01T02:20:19.131Z,3.90
2018-02-01T02:22:47.484Z,2.43
2018-02-01T02:25:16.083Z,2.70
2018-02-01T02:27:44.394Z,4.27
2018-02-01T02:30:12.692Z,3.13
2018-02-01T02:32:41.125Z,2.50
2018-02-01T02:35:09.487Z,2.53
2018-02-01T02:37:38.005Z,3.80
2018-02-01T02:40:06.705Z,2.60
2018-02-01T02:42:35.023Z,2.37
2018-02-01T02:45:04.099Z,2.97
2018-02-01T02:47:32.709Z,2.10
2018-02-01T02:50:01.020Z,2.30
2018-02-01T02:52:29.323Z,3.00
2018-02-01T02:54:57.783Z,5.00
2018-02-01T02:57:26.098Z,2.90
2018-02-01T02:59:54.412Z,3.90
2018-02-01T03:02:22.768Z,3.23
2018-02-01T03:04:51.075Z,2.77
2018-02-01T03:07:19.389Z,4.20
2018-02-01T03:09:47.981Z,3.27
2018-02-01T03:12:16.291Z,3.47
2018-02-01T03:14:44.598Z,3.57
2018-02-01T03:17:12.943Z,4.70
2018-02-01T03:19:42.007Z,4.40
2018-02-01T03:22:10.311Z,3.53
2018-02-01T03:24:39.427Z,5.00
2018-02-01T03:27:07.731Z,4.40
2018-02-01T03:29:36.027Z,3.77
2018-02-01T03:32:04.400Z,6.70
2018-02-01T03:34:32.624Z,3.23
2018-02-01T03:37:00.930Z,3.90
2018-02-01T03:39:29.243Z,11.23
2018-02-01T03:41:57.834Z,4.80
2018-02-01T03:44:26.148Z,6.50
2018-02-01T03:46:54.471Z,3.97
2018-02-01T03:49:22.799Z,6.60
2018-02-01T03:51:51.863Z,5.20
2018-02-01T03:54:20.161Z,6.00
2018-02-01T03:56:48.511Z,5.10
2018-02-01T03:59:17.025Z,3.90
2018-02-01T04:01:45.574Z,4.27
2018-02-01T04:04:14.711Z,3.20
2018-02-01T04:06:43.020Z,3.67
2018-02-01T04:09:11.304Z,4.37
2018-02-01T04:11:39.899Z,4.77
2018-02-01T04:14:08.208Z,4.43
2018-02-01T04:16:37.282Z,3.10
2018-02-01T04:19:05.891Z,2.90
2018-02-01T04:21:34.224Z,4.70
2018-02-01T04:24:02.524Z,4.33
2018-02-01T04:26:31.259Z,3.07
2018-02-01T04:28:59.974Z,3.53
2018-02-01T04:31:28.627Z,3.23
2018-02-01T04:33:57.029Z,5.43
2018-02-01T04:36:25.336Z,2.50
2018-02-01T04:38:53.639Z,3.57
2018-02-01T04:41:23.090Z,3.10
2018-02-01T04:43:51.389Z,2.80
2018-02-01T04:46:19.687Z,2.30
2018-02-01T04:48:48.027Z,1.47
2018-02-01T04:51:16.327Z,1.60
2018-02-01T04:53:44.624Z,1.77
2018-02-01T04:56:12.993Z,1.73
2018-02-01T04:58:41.283Z,1.50
2018-02-01T05:01:10.414Z,1.43
2018-02-01T05:03:38.739Z,1.50
2018-02-01T05:06:07.046Z,1.70
2018-02-01T05:08:35.351Z,1.23
2018-02-01T05:11:03.947Z,1.40
2018-02-01T05:13:32.252Z,2.10
2018-02-01T05:16:00.563Z,1.30
2018-02-01T05:18:28.904Z,2.30
2018-02-01T05:20:57.203Z,1.37
2018-02-01T05:23:26.271Z,2.07
2018-02-01T05:25:54.615Z,1.60
2018-02-01T05:28:23.288Z,1.40
2018-02-01T05:30:51.897Z,3.60
2018-02-01T05:33:20.458Z,1.40
2018-02-01T05:35:49.679Z,1.40
2018-02-01T05:38:17.992Z,3.40
2018-02-01T05:40:46.590Z,1.60
2018-02-01T05:43:15.140Z,1.60
2018-02-01T05:45:44.240Z,2.70
2018-02-01T05:48:12.832Z,1.47
2018-02-01T05:50:41.132Z,1.40
2018-02-01T05:53:09.446Z,6.20
2018-02-01T05:55:37.768Z,2.80
2018-02-01T05:58:06.078Z,1.90
2018-02-01T06:00:34.436Z,1.40
2018-02-01T06:03:03.025Z,2.30
2018-02-01T06:05:31.787Z,1.47
2018-02-01T06:07:59.950Z,2.10
2018-02-01T06:10:28.441Z,3.40
2018-02-01T06:12:56.604Z,2.33
2018-02-01T06:15:26.232Z,3.40
2018-02-01T06:17:57.845Z,2.90
2018-02-01T06:20:26.255Z,2.13
2018-02-01T06:22:54.685Z,2.70
2018-02-01T06:25:22.992Z,5.53
2018-02-01T06:27:51.915Z,4.60
2018-02-01T06:30:20.315Z,4.00
2018-02-01T06:32:48.633Z,3.20
2018-02-01T06:35:16.755Z,2.97
2018-02-01T06:37:45.828Z,5.22
2018-02-01T06:40:14.251Z,4.53
2018-02-01T06:42:42.811Z,3.70
2018-02-01T06:45:11.245Z,6.50
2018-02-01T06:47:39.872Z,5.30
2018-02-01T06:50:09.021Z,6.53
2018-02-01T06:52:38.111Z,2.70
2018-02-01T06:55:07.424Z,1.87
2018-02-01T06:57:35.731Z,2.03
2018-02-01T07:00:04.044Z,3.20
2018-02-01T07:02:33.342Z,4.37
2018-02-01T07:05:01.900Z,2.30
2018-02-01T07:07:30.196Z,3.50
2018-02-01T07:09:58.316Z,4.33
2018-02-01T07:12:26.823Z,3.80
2018-02-01T07:14:56.704Z,7.43
2018-02-01T07:17:26.612Z,5.90
2018-02-01T07:19:55.588Z,4.10
2018-02-01T07:22:24.756Z,3.70
2018-02-01T07:24:53.507Z,3.00
2018-02-01T07:27:22.225Z,4.43
2018-02-01T07:29:50.541Z,6.90
2018-02-01T07:32:18.847Z,3.80
2018-02-01T07:34:47.456Z,6.20
2018-02-01T07:37:15.896Z,2.97
2018-02-01T07:39:45.140Z,2.53
2018-02-01T07:42:13.502Z,4.83
2018-02-01T07:44:41.729Z,5.90
2018-02-01T07:47:10.094Z,4.27
2018-02-01T07:49:39.164Z,2.43
2018-02-01T07:52:07.511Z,4.03
2018-02-01T07:54:36.015Z,3.83
2018-02-01T07:57:04.365Z,4.93
2018-02-01T07:59:32.723Z,4.33
2018-02-01T08:02:01.352Z,5.00
2018-02-01T08:04:29.724Z,6.53
2018-02-01T08:06:58.035Z,3.93
2018-02-01T08:09:26.568Z,3.57
2018-02-01T08:11:55.036Z,8.60
2018-02-01T08:14:23.695Z,10.10
2018-02-01T08:16:52.004Z,6.33
2018-02-01T08:19:20.328Z,7.93
2018-02-01T08:21:48.768Z,7.50
2018-02-01T08:24:17.075Z,5.77
2018-02-01T08:26:45.400Z,6.00
2018-02-01T08:29:14.003Z,6.27
2018-02-01T08:31:42.304Z,5.70
2018-02-01T08:34:10.887Z,4.43
2018-02-01T08:36:39.204Z,4.17
2018-02-01T08:39:07.522Z,2.80
2018-02-01T08:41:36.666Z,3.33
2018-02-01T08:44:04.967Z,3.17
2018-02-01T08:46:34.035Z,2.90
2018-02-01T08:49:02.391Z,2.83
2018-02-01T08:51:30.691Z,3.10
2018-02-01T08:53:58.988Z,2.87
2018-02-01T08:56:27.287Z,3.77
2018-02-01T08:58:55.604Z,7.33
2018-02-01T09:01:23.927Z,4.83
2018-02-01T09:03:53.040Z,12.27
2018-02-01T09:06:21.356Z,4.17
2018-02-01T09:08:49.659Z,5.00
2018-02-01T09:11:18.004Z,4.17
2018-02-01T09:13:46.312Z,3.03
2018-02-01T09:16:14.623Z,4.33
2018-02-01T09:18:43.063Z,3.33
2018-02-01T09:21:11.364Z,6.50
2018-02-01T09:23:40.435Z,2.80
2018-02-01T09:26:09.552Z,3.50
2018-02-01T09:28:38.629Z,2.57
2018-02-01T09:31:07.447Z,1.90
2018-02-01T09:33:36.083Z,2.27
2018-02-01T09:36:04.419Z,3.17
2018-02-01T09:38:32.741Z,2.10
2018-02-01T09:41:01.203Z,3.47
2018-02-01T09:43:29.499Z,3.20
2018-02-01T09:45:57.811Z,4.03
2018-02-01T09:48:27.184Z,2.50
2018-02-01T09:50:55.484Z,2.80
2018-02-01T09:53:23.791Z,2.60
2018-02-01T09:55:52.166Z,3.70
2018-02-01T09:58:20.479Z,5.13
2018-02-01T10:00:48.788Z,2.50
2018-02-01T10:03:17.229Z,2.27
2018-02-01T10:05:45.528Z,1.93
2018-02-01T10:08:13.835Z,2.07
2018-02-01T10:10:42.188Z,2.33
2018-02-01T10:13:10.496Z,2.33
2018-02-01T10:15:39.559Z,1.90
2018-02-01T10:18:08.184Z,1.90
2018-02-01T10:20:36.486Z,2.10
2018-02-01T10:23:04.787Z,1.60
2018-02-01T10:25:33.464Z,2.57
2018-02-01T10:28:01.928Z,2.40
2018-02-01T10:30:30.004Z,2.63
2018-02-01T10:32:58.639Z,1.73
2018-02-01T10:35:27.245Z,2.20
2018-02-01T10:37:55.546Z,3.70
2018-02-01T10:40:23.850Z,2.70
2018-02-01T10:42:52.367Z,1.67
2018-02-01T10:45:20.682Z,7.10
2018-02-01T10:47:48.964Z,2.77
2018-02-01T10:50:17.313Z,2.23
2018-02-01T10:52:45.387Z,3.53
2018-02-01T10:55:13.819Z,6.93
2018-02-01T10:57:42.316Z,1.90
2018-02-01T11:00:11.700Z,2.60
2018-02-01T11:02:40.451Z,6.20
2018-02-01T11:05:09.005Z,1.90
2018-02-01T11:07:37.633Z,1.80
2018-02-01T11:10:07.156Z,4.13
2018-02-01T11:12:36.277Z,3.30
2018-02-01T11:15:04.583Z,4.43
2018-02-01T11:17:33.692Z,3.20
2018-02-01T11:20:02.012Z,2.67
2018-02-01T11:22:30.320Z,2.00
2018-02-01T11:24:58.695Z,3.23
2018-02-01T11:27:28.081Z,2.07
2018-02-01T11:29:56.776Z,2.60
2018-02-01T11:32:25.134Z,5.33
2018-02-01T11:34:53.631Z,2.37
2018-02-01T11:37:21.935Z,3.83
2018-02-01T11:39:50.999Z,2.23
2018-02-01T11:42:19.367Z,2.60
2018-02-01T11:44:47.666Z,3.60
2018-02-01T11:47:16.052Z,7.67
2018-02-01T11:49:45.501Z,2.50
2018-02-01T11:52:13.799Z,9.67
2018-02-01T11:54:41.916Z,4.50
2018-02-01T11:57:10.283Z,2.90
2018-02-01T11:59:38.602Z,1.53
2018-02-01T12:02:07.447Z,3.13
2018-02-01T12:04:35.808Z,2.83
2018-02-01T12:07:04.102Z,3.10
2018-02-01T12:09:32.687Z,4.37
2018-02-01T12:12:00.983Z,2.80
2018-02-01T12:14:31.229Z,2.17
2018-02-01T12:16:59.531Z,2.17
2018-02-01T12:19:27.827Z,2.33
2018-02-01T12:21:56.216Z,3.07
2018-02-01T12:24:24.723Z,3.73
2018-02-01T12:26:53.040Z,2.47
2018-02-01T12:29:21.379Z,3.10
2018-02-01T12:31:49.966Z,2.07
2018-02-01T12:34:18.609Z,3.23
2018-02-01T12:36:46.952Z,2.40
2018-02-01T12:39:15.268Z,5.30
2018-02-01T12:41:43.563Z,2.47
2018-02-01T12:44:12.174Z,4.10
2018-02-01T12:46:41.027Z,4.67
2018-02-01T12:49:09.328Z,5.63
2018-02-01T12:51:37.688Z,4.00
2018-02-01T12:54:06.005Z,1.60
2018-02-01T12:56:34.345Z,5.97
2018-02-01T12:59:03.943Z,3.10
2018-02-01T13:01:32.252Z,2.70
2018-02-01T13:04:00.552Z,3.80
2018-02-01T13:06:28.900Z,6.10
2018-02-01T13:08:57.195Z,5.40
2018-02-01T13:11:25.499Z,3.10
2018-02-01T13:13:53.951Z,3.00
2018-02-01T13:16:22.259Z,3.63
2018-02-01T13:18:50.755Z,1.93
2018-02-01T13:21:19.448Z,4.87
2018-02-01T13:23:48.042Z,1.80
2018-02-01T13:26:16.412Z,4.07
2018-02-01T13:28:45.020Z,2.60
2018-02-01T13:31:14.403Z,3.50
2018-02-01T13:33:42.715Z,3.97
2018-02-01T13:36:11.351Z,3.23
2018-02-01T13:38:39.695Z,5.70
2018-02-01T13:41:08.295Z,5.40
2018-02-01T13:43:36.620Z,3.73
2018-02-01T13:46:04.936Z,3.13
2018-02-01T13:48:33.544Z,4.83
2018-02-01T13:51:01.894Z,3.83
2018-02-01T13:53:30.165Z,3.20
2018-02-01T13:55:58.517Z,6.70
2018-02-01T13:58:27.587Z,3.20
2018-02-01T14:00:55.895Z,6.57
2018-02-01T14:03:25.192Z,5.70
2018-02-01T14:05:54.263Z,4.07
2018-02-01T14:08:22.579Z,7.10
2018-02-01T14:10:50.948Z,5.13
2018-02-01T14:13:19.256Z,6.40
2018-02-01T14:15:47.599Z,3.13
2018-02-01T14:18:16.713Z,3.30
2018-02-01T14:20:45.016Z,4.57
2018-02-01T14:23:13.321Z,6.57
2018-02-01T14:25:41.751Z,5.70
2018-02-01T14:28:10.060Z,3.63
2018-02-01T14:30:38.656Z,6.53
2018-02-01T14:33:07.017Z,3.90
2018-02-01T14:35:35.380Z,11.67
2018-02-01T14:38:03.736Z,7.07
2018-02-01T14:40:32.049Z,5.13
2018-02-01T14:43:00.365Z,10.20
2018-02-01T14:45:28.716Z,4.90
2018-02-01T14:47:58.044Z,3.47
2018-02-01T14:50:26.387Z,8.23
2018-02-01T14:52:54.732Z,3.87
2018-02-01T14:55:23.047Z,5.53
2018-02-01T14:57:51.376Z,10.70
2018-02-01T15:00:20.496Z,7.23
2018-02-01T15:02:48.804Z,7.07
2018-02-01T15:05:17.119Z,6.13
2018-02-01T15:07:45.476Z,4.13
2018-02-01T15:10:13.776Z,7.70
2018-02-01T15:12:42.848Z,8.27
2018-02-01T15:15:11.439Z,3.40
2018-02-01T15:17:39.766Z,3.53
2018-02-01T15:20:08.099Z,6.57
2018-02-01T15:22:37.316Z,11.00
2018-02-01T15:25:05.619Z,2.80
2018-02-01T15:27:33.948Z,6.73
2018-02-01T15:30:02.639Z,7.50
2018-02-01T15:32:31.849Z,5.10
2018-02-01T15:35:00.155Z,10.90
2018-02-01T15:37:28.749Z,11.80
2018-02-01T15:39:57.064Z,7.10
2018-02-01T15:42:25.358Z,4.53
2018-02-01T15:44:53.739Z,9.07
2018-02-01T15:47:22.808Z,8.87
2018-02-01T15:49:51.124Z,5.90
2018-02-01T15:52:20.247Z,4.47
2018-02-01T15:54:48.551Z,10.87
2018-02-01T15:57:16.854Z,6.13
2018-02-01T15:59:45.179Z,8.40
2018-02-01T16:02:13.487Z,5.97
2018-02-01T16:04:41.835Z,5.37
2018-02-01T16:07:10.213Z,7.20
2018-02-01T16:09:38.720Z,5.53
2018-02-01T16:12:07.239Z,6.83
2018-02-01T16:14:36.539Z,5.13
2018-02-01T16:17:05.615Z,4.77
2018-02-01T16:19:34.004Z,8.40
2018-02-01T16:22:02.212Z,9.30
2018-02-01T16:24:30.524Z,9.20
2018-02-01T16:26:58.824Z,5.57
2018-02-01T16:29:27.192Z,8.70
2018-02-01T16:31:55.495Z,5.47
2018-02-01T16:34:24.574Z,8.07
2018-02-01T16:36:52.923Z,6.50
2018-02-01T16:39:21.217Z,6.80
2018-02-01T16:41:50.280Z,6.50
2018-02-01T16:44:18.888Z,4.47
2018-02-01T16:46:47.195Z,8.10
2018-02-01T16:49:16.271Z,5.40
2018-02-01T16:51:44.886Z,11.50
2018-02-01T16:54:13.198Z,6.67
2018-02-01T16:56:41.271Z,6.10
2018-02-01T16:59:09.619Z,14.63
2018-02-01T17:01:38.691Z,4.37
2018-02-01T17:04:07.008Z,3.37
2018-02-01T17:06:35.363Z,7.00
2018-02-01T17:09:03.676Z,5.03
2018-02-01T17:11:32.006Z,6.50
2018-02-01T17:14:01.285Z,6.47
2018-02-01T17:16:29.403Z,4.87
2018-02-01T17:18:57.703Z,5.57
2018-02-01T17:21:25.999Z,8.03
2018-02-01T17:23:54.387Z,5.37
2018-02-01T17:26:22.722Z,10.93
2018-02-01T17:28:51.035Z,8.63
2018-02-01T17:31:19.371Z,9.00
2018-02-01T17:33:47.676Z,7.83
2018-02-01T17:36:15.947Z,7.93
2018-02-01T17:38:44.252Z,7.17
2018-02-01T17:41:12.553Z,5.93
2018-02-01T17:43:41.147Z,9.87
2018-02-01T17:46:09.452Z,10.53
2018-02-01T17:48:37.759Z,7.10
2018-02-01T17:51:06.107Z,12.30
2018-02-01T17:53:34.408Z,10.40
2018-02-01T17:56:02.715Z,7.67
2018-02-01T17:58:31.098Z,8.43
2018-02-01T18:00:59.404Z,11.87
2018-02-01T18:03:27.707Z,12.40
2018-02-01T18:05:56.303Z,6.33
2018-02-01T18:08:24.606Z,7.53
2018-02-01T18:10:52.910Z,5.70
2018-02-01T18:13:22.290Z,6.47
2018-02-01T18:15:50.603Z,5.13
2018-02-01T18:18:18.911Z,5.70
2018-02-01T18:20:47.540Z,6.83
2018-02-01T18:23:16.175Z,5.43
2018-02-01T18:25:44.573Z,9.23
2018-02-01T18:28:13.676Z,13.13
2018-02-01T18:30:42.044Z,6.03
2018-02-01T18:33:10.344Z,7.60
2018-02-01T18:35:38.655Z,9.33
2018-02-01T18:38:07.306Z,9.10
2018-02-01T18:40:35.682Z,8.80
2018-02-01T18:43:04.032Z,13.87
2018-02-01T18:45:32.553Z,14.53
2018-02-01T18:48:00.901Z,14.23
2018-02-01T18:50:29.256Z,17.00
2018-02-01T18:52:57.931Z,14.20
2018-02-01T18:55:26.286Z,11.23
2018-02-01T18:57:54.588Z,9.17
2018-02-01T19:00:23.342Z,11.63
2018-02-01T19:02:52.040Z,10.87
2018-02-01T19:05:21.111Z,13.90
2018-02-01T19:07:50.036Z,9.10
2018-02-01T19:10:18.384Z,15.63
2018-02-01T19:12:46.696Z,8.77
2018-02-01T19:15:15.067Z,9.87
2018-02-01T19:17:43.911Z,8.57
2018-02-01T19:20:12.627Z,8.07
2018-02-01T19:22:43.113Z,7.23
2018-02-01T19:25:11.421Z,6.87
2018-02-01T19:27:39.738Z,7.10
2018-02-01T19:30:08.178Z,12.00
2018-02-01T19:32:36.496Z,10.73
2018-02-01T19:35:05.347Z,10.83
2018-02-01T19:37:33.805Z,7.90
2018-02-01T19:40:02.509Z,9.77
2018-02-01T19:42:31.716Z,8.43
2018-02-01T19:45:00.122Z,8.70
2018-02-01T19:47:29.757Z,9.47
2018-02-01T19:49:58.249Z,9.00
2018-02-01T19:52:26.564Z,14.37
2018-02-01T19:54:55.152Z,11.23
2018-02-01T19:57:23.639Z,9.17
2018-02-01T19:59:51.955Z,12.93
2018-02-01T20:02:20.259Z,10.73
2018-02-01T20:04:48.599Z,12.20
2018-02-01T20:07:16.911Z,8.40
2018-02-01T20:09:45.279Z,10.53
2018-02-01T20:12:13.634Z,11.07
2018-02-01T20:14:41.987Z,8.17
2018-02-01T20:17:10.304Z,6.87
2018-02-01T20:19:38.990Z,5.40
2018-02-01T20:22:07.342Z,8.17
2018-02-01T20:24:36.543Z,10.10
2018-02-01T20:27:04.899Z,6.00
2018-02-01T20:29:34.010Z,9.33
2018-02-01T20:32:02.908Z,6.33
2018-02-01T20:34:31.224Z,28.67
2018-02-01T20:36:59.575Z,4.93
2018-02-01T20:39:28.027Z,7.83
2018-02-01T20:41:56.368Z,6.77
2018-02-01T20:44:24.611Z,7.13
2018-02-01T20:46:53.307Z,5.63
2018-02-01T20:49:21.438Z,8.83
2018-02-01T20:51:50.576Z,6.37
2018-02-01T20:54:18.738Z,3.60
2018-02-01T20:56:46.852Z,4.00
2018-02-01T20:59:15.371Z,5.17
2018-02-01T21:01:43.775Z,6.47
2018-02-01T21:04:11.942Z,3.60
2018-02-01T21:06:40.256Z,8.68
2018-02-01T21:09:08.568Z,8.52
2018-02-01T21:11:37.231Z,6.10
2018-02-01T21:14:05.570Z,7.30
2018-02-01T21:16:33.872Z,10.10
2018-02-01T21:19:02.300Z,6.10
2018-02-01T21:21:30.606Z,4.77
2018-02-01T21:23:58.955Z,4.80
2018-02-01T21:26:28.099Z,7.17
2018-02-01T21:28:56.424Z,6.40
2018-02-01T21:31:24.745Z,5.12
2018-02-01T21:33:53.455Z,7.15
2018-02-01T21:36:22.234Z,5.77
2018-02-01T21:38:50.554Z,8.80
2018-02-01T21:41:19.279Z,7.63
2018-02-01T21:43:47.584Z,4.63
2018-02-01T21:46:15.350Z,7.00
2018-02-01T21:48:43.737Z,5.17
2018-02-01T21:51:11.350Z,8.40
2018-02-01T21:53:39.683Z,8.30
2018-02-01T21:56:07.987Z,7.15
2018-02-01T21:58:36.394Z,5.80
2018-02-01T22:01:04.751Z,4.27
2018-02-01T22:03:33.060Z,8.90
2018-02-01T22:06:01.790Z,4.20
2018-02-01T22:08:30.211Z,4.77
2018-02-01T22:10:58.507Z,8.63
2018-02-01T22:13:26.814Z,8.13
2018-02-01T22:15:55.214Z,6.25
2018-02-01T22:18:23.521Z,4.62
2018-02-01T22:20:52.520Z,6.95
2018-02-01T22:23:20.917Z,6.53
2018-02-01T22:25:49.306Z,8.93
2018-02-01T22:28:17.699Z,4.47
2018-02-01T22:30:46.845Z,6.60
2018-02-01T22:33:15.740Z,3.90
2018-02-01T22:35:44.999Z,7.10
2018-02-01T22:38:13.317Z,6.15
2018-02-01T22:40:41.624Z,6.23
2018-02-01T22:43:09.964Z,3.53
2018-02-01T22:45:38.916Z,6.82
2018-02-01T22:48:07.265Z,4.00
2018-02-01T22:50:35.571Z,3.00
2018-02-01T22:53:03.954Z,5.67
2018-02-01T22:55:32.282Z,3.97
2018-02-01T22:58:00.864Z,3.47
2018-02-01T23:00:29.652Z,4.07
2018-02-01T23:02:58.944Z,3.53
2018-02-01T23:05:28.254Z,5.50
2018-02-01T23:07:57.134Z,4.25
2018-02-01T23:10:26.215Z,3.85
2018-02-01T23:12:55.080Z,3.25
2018-02-01T23:15:24.670Z,3.25
2018-02-01T23:17:53.216Z,3.90
2018-02-01T23:20:22.009Z,5.15
2018-02-01T23:22:50.383Z,4.30
2018-02-01T23:25:19.406Z,4.60
2018-02-01T23:27:48.799Z,5.40
2018-02-01T23:30:17.425Z,3.72
2018-02-01T23:32:45.932Z,5.10
2018-02-01T23:35:14.255Z,5.67
2018-02-01T23:37:42.612Z,4.87
2018-02-01T23:40:10.926Z,9.70
2018-02-01T23:42:39.242Z,7.53
2018-02-01T23:45:07.643Z,6.82
2018-02-01T23:47:35.959Z,4.10
2018-02-01T23:50:04.274Z,6.50
2018-02-01T23:52:32.620Z,3.58
2018-02-01T23:55:00.945Z,5.62
2018-02-01T23:57:29.256Z,6.68
2018-02-01T23:59:58.672Z,6.47
